Decoded Metar for YGFN ( in ) (IATA:) | Meteo·Mobile Aviation Weather
aviador You're here:

YGFN Decoded Metar

in
Report Time2018-12-15 18:26:00
UTC Time2018-12-15 19:03:11
Flight Rules mvfr MVFR
Wind030° at 10 kt
W.Decomp.*RWY 36: 8.7 kt HW 5.0 kt RCW
W.Rank030° ranks 12
Current wind is above 030° avg. (5.8)
Visibility9999 m
Phenomena:N/A
Clouds:Broken 018 Hf
Overcast 021 Hf
Overcast 054 Hf
Expected CloudBase > 800 ft AGL from Temp-Dew spread
Ceiling1,800 ft
Temp23°C
Dew Point21°C (89% RH)
QNH1010 hPa
Raw Report
SPECI YGFN 151826Z AUTO 03010KT 9999 // BKN018 OVC021 OVC054 23/21 Q1010=

Extra information for YGFN:More info

Social comments